createdAt,value
2023-01-20T00:00:17.476Z,5.10
2023-01-20T00:02:24.018Z,5.82
2023-01-20T00:04:26.406Z,5.38
2023-01-20T00:06:29.018Z,5.50
2023-01-20T00:08:31.677Z,5.50
2023-01-20T00:10:34.191Z,5.75
2023-01-20T00:12:36.928Z,5.18
2023-01-20T00:14:39.321Z,5.50
2023-01-20T00:16:41.974Z,6.10
2023-01-20T00:18:47.083Z,5.60
2023-01-20T00:20:50.027Z,6.03
2023-01-20T00:22:52.474Z,5.93
2023-01-20T00:24:55.065Z,5.85
2023-01-20T00:26:57.627Z,6.20
2023-01-20T00:29:00.403Z,5.72
2023-01-20T00:31:14.548Z,5.25
2023-01-20T00:33:16.944Z,5.80
2023-01-20T00:35:22.096Z,6.40
2023-01-20T00:37:24.729Z,9.35
2023-01-20T00:39:27.370Z,6.60
2023-01-20T00:41:30.561Z,6.13
2023-01-20T00:43:33.479Z,5.97
2023-01-20T00:45:36.487Z,7.00
2023-01-20T00:47:39.317Z,7.80
2023-01-20T00:49:44.276Z,6.97
2023-01-20T00:51:49.381Z,7.38
2023-01-20T00:53:52.036Z,7.07
2023-01-20T00:55:54.967Z,9.90
2023-01-20T00:57:57.455Z,10.88
2023-01-20T00:59:59.843Z,7.93
2023-01-20T01:02:02.731Z,10.60
2023-01-20T01:04:05.771Z,8.13
2023-01-20T01:06:10.671Z,8.02
2023-01-20T01:08:16.148Z,12.48
2023-01-20T01:10:22.437Z,38.45
2023-01-20T01:12:25.129Z,9.80
2023-01-20T01:14:27.617Z,18.20
2023-01-20T01:16:30.161Z,9.30
2023-01-20T01:18:32.641Z,9.57
2023-01-20T01:20:35.029Z,16.50
2023-01-20T01:22:37.369Z,9.90
2023-01-20T01:24:46.467Z,10.15
2023-01-20T01:26:49.008Z,9.10
2023-01-20T01:28:51.781Z,10.15
2023-01-20T01:30:54.341Z,10.25
2023-01-20T01:32:56.712Z,13.13
2023-01-20T01:34:59.212Z,11.25
2023-01-20T01:37:01.856Z,11.38
2023-01-20T01:39:10.044Z,8.55
2023-01-20T01:41:17.157Z,8.90
2023-01-20T01:43:25.355Z,9.07
2023-01-20T01:45:29.644Z,9.02
2023-01-20T01:47:46.698Z,9.00
2023-01-20T01:49:50.239Z,8.20
2023-01-20T01:51:58.686Z,8.88
2023-01-20T01:54:09.423Z,8.85
2023-01-20T01:56:15.201Z,9.07
2023-01-20T01:58:23.066Z,9.27
2023-01-20T02:00:25.874Z,8.73
2023-01-20T02:02:28.709Z,9.50
2023-01-20T02:04:33.566Z,11.32
2023-01-20T02:06:39.085Z,9.18
2023-01-20T02:08:43.252Z,8.60
2023-01-20T02:10:45.670Z,11.93
2023-01-20T02:12:51.903Z,9.13
2023-01-20T02:14:56.189Z,8.95
2023-01-20T02:17:04.492Z,12.25
2023-01-20T02:19:22.172Z,9.77
2023-01-20T02:21:57.230Z,10.55
2023-01-20T02:24:25.539Z,8.52
2023-01-20T02:26:49.432Z,10.75
2023-01-20T02:29:27.259Z,9.50
2023-01-20T02:32:11.161Z,9.95
2023-01-20T02:34:20.911Z,9.85
2023-01-20T02:36:31.428Z,10.70
2023-01-20T02:38:42.926Z,9.60
2023-01-20T02:40:54.608Z,9.60
2023-01-20T02:43:06.073Z,12.07
2023-01-20T02:45:15.607Z,9.10
2023-01-20T02:47:23.227Z,10.70
2023-01-20T02:49:36.857Z,10.77
2023-01-20T02:51:45.562Z,20.05
2023-01-20T02:53:51.891Z,10.07
2023-01-20T02:55:55.404Z,10.95
2023-01-20T02:58:03.017Z,11.75
2023-01-20T03:00:13.410Z,11.90
2023-01-20T03:02:20.319Z,11.23
2023-01-20T03:04:40.053Z,12.10
2023-01-20T03:06:49.629Z,10.05
2023-01-20T03:08:53.542Z,11.73
2023-01-20T03:11:02.085Z,14.95
2023-01-20T03:13:10.083Z,11.18
2023-01-20T03:15:13.365Z,11.43
2023-01-20T03:17:16.256Z,11.33
2023-01-20T03:19:20.604Z,11.15
2023-01-20T03:21:23.982Z,12.52
2023-01-20T03:23:34.608Z,10.63
2023-01-20T03:25:39.238Z,11.13
2023-01-20T03:27:42.574Z,14.75
2023-01-20T03:29:45.168Z,13.15
2023-01-20T03:31:50.608Z,11.70
2023-01-20T03:33:55.315Z,11.95
2023-01-20T03:35:58.136Z,13.55
2023-01-20T03:38:00.772Z,16.10
2023-01-20T03:40:07.334Z,14.02
2023-01-20T03:42:14.392Z,12.25
2023-01-20T03:44:23.216Z,13.60
2023-01-20T03:46:35.495Z,11.52
2023-01-20T03:48:46.447Z,18.58
2023-01-20T03:50:55.154Z,18.27
2023-01-20T03:53:05.682Z,13.93
2023-01-20T03:55:15.623Z,15.25
2023-01-20T03:57:21.669Z,12.40
2023-01-20T03:59:25.269Z,16.17
2023-01-20T04:01:34.417Z,13.77
2023-01-20T04:03:40.216Z,14.48
2023-01-20T04:05:44.596Z,14.57
2023-01-20T04:09:54.475Z,14.63
2023-01-20T04:11:59.796Z,13.20
2023-01-20T04:14:04.275Z,16.55
2023-01-20T04:16:12.164Z,12.45
2023-01-20T04:18:17.150Z,12.45
2023-01-20T04:20:19.915Z,16.75
2023-01-20T04:22:29.408Z,18.73
2023-01-20T04:24:36.718Z,16.02
2023-01-20T04:26:39.040Z,14.80
2023-01-20T04:28:44.643Z,15.77
2023-01-20T04:30:52.542Z,17.77
2023-01-20T04:32:55.038Z,12.45
2023-01-20T04:34:57.365Z,17.08
2023-01-20T04:36:59.915Z,14.52
2023-01-20T04:39:02.433Z,12.35
2023-01-20T04:41:11.544Z,13.25
2023-01-20T04:43:14.125Z,19.25
2023-01-20T04:45:19.300Z,16.80
2023-01-20T04:47:21.734Z,16.58
2023-01-20T04:49:24.621Z,12.15
2023-01-20T04:51:27.447Z,14.70
2023-01-20T04:53:30.592Z,14.30
2023-01-20T04:55:33.315Z,14.52
2023-01-20T04:57:36.037Z,19.52
2023-01-20T04:59:38.352Z,18.67
2023-01-20T05:01:43.979Z,14.60
2023-01-20T05:03:46.457Z,14.65
2023-01-20T05:05:53.214Z,12.55
2023-01-20T05:07:57.198Z,11.23
2023-01-20T05:09:59.748Z,12.40
2023-01-20T05:12:02.144Z,14.25
2023-01-20T05:14:04.633Z,14.35
2023-01-20T05:16:07.761Z,14.52
2023-01-20T05:18:13.038Z,17.57
2023-01-20T05:20:20.818Z,16.05
2023-01-20T05:22:25.214Z,18.88
2023-01-20T05:24:27.790Z,11.10
2023-01-20T05:26:30.255Z,11.30
2023-01-20T05:28:32.859Z,15.18
2023-01-20T05:30:35.378Z,13.82
2023-01-20T05:32:37.870Z,16.20
2023-01-20T05:34:43.015Z,17.80
2023-01-20T05:36:45.426Z,17.63
2023-01-20T05:38:48.122Z,11.98
2023-01-20T05:40:50.564Z,13.50
2023-01-20T05:42:53.333Z,16.33
2023-01-20T05:45:01.011Z,16.58
2023-01-20T05:47:06.379Z,14.98
2023-01-20T05:49:11.383Z,15.35
2023-01-20T05:51:18.031Z,17.83
2023-01-20T05:53:20.849Z,15.15
2023-01-20T05:55:24.352Z,19.73
2023-01-20T05:57:27.476Z,15.55
2023-01-20T05:59:30.185Z,17.30
2023-01-20T06:01:32.828Z,14.63
2023-01-20T06:03:35.650Z,14.48
2023-01-20T06:05:38.119Z,18.27
2023-01-20T06:07:43.529Z,21.25
2023-01-20T06:09:45.997Z,11.80
2023-01-20T06:11:48.896Z,17.40
2023-01-20T06:13:51.429Z,14.05
2023-01-20T06:15:57.791Z,18.77
2023-01-20T06:18:00.358Z,16.00
2023-01-20T06:20:23.006Z,17.63
2023-01-20T06:22:28.039Z,20.02
2023-01-20T06:24:33.166Z,21.80
2023-01-20T06:26:35.646Z,17.50
2023-01-20T06:28:38.308Z,17.05
2023-01-20T06:30:43.293Z,19.90
2023-01-20T06:32:47.230Z,18.35
2023-01-20T06:34:53.454Z,18.23
2023-01-20T06:36:56.075Z,18.08
2023-01-20T06:38:58.632Z,13.07
2023-01-20T06:41:06.368Z,16.27
2023-01-20T06:43:08.812Z,13.55
2023-01-20T06:45:11.766Z,15.77
2023-01-20T06:47:14.153Z,16.83
2023-01-20T06:49:16.555Z,18.95
2023-01-20T06:51:20.430Z,20.20
2023-01-20T06:53:22.929Z,16.52
2023-01-20T06:55:26.072Z,25.77
2023-01-20T06:57:31.512Z,17.73
2023-01-20T06:59:34.030Z,13.23
2023-01-20T07:01:43.695Z,17.92
2023-01-20T07:03:46.354Z,12.52
2023-01-20T07:05:56.663Z,21.02
2023-01-20T07:07:59.495Z,15.93
2023-01-20T07:10:01.988Z,16.77
2023-01-20T07:12:05.499Z,18.10
2023-01-20T07:14:10.682Z,17.30
2023-01-20T07:16:21.976Z,15.05
2023-01-20T07:18:24.444Z,21.42
2023-01-20T07:20:26.865Z,18.40
2023-01-20T07:22:29.245Z,16.25
2023-01-20T07:24:31.540Z,17.05
2023-01-20T07:26:34.105Z,15.23
2023-01-20T07:28:38.047Z,18.92
2023-01-20T07:30:43.368Z,18.23
2023-01-20T07:32:45.811Z,17.83
2023-01-20T07:34:50.210Z,16.02
2023-01-20T07:36:53.493Z,20.33
2023-01-20T07:38:56.064Z,17.17
2023-01-20T07:40:59.353Z,20.95
2023-01-20T07:43:03.769Z,17.67
2023-01-20T07:47:11.677Z,19.05
2023-01-20T07:49:14.811Z,14.35
2023-01-20T07:51:17.897Z,20.25
2023-01-20T07:53:21.902Z,20.08
2023-01-20T07:55:25.204Z,21.02
2023-01-20T07:57:33.728Z,19.02
2023-01-20T07:59:56.906Z,17.95
2023-01-20T08:01:59.622Z,19.17
2023-01-20T08:04:07.486Z,25.58
2023-01-20T08:06:14.337Z,20.35
2023-01-20T08:08:33.933Z,23.90
2023-01-20T08:10:37.287Z,19.17
2023-01-20T08:12:39.800Z,20.33
2023-01-20T08:14:42.291Z,20.02
2023-01-20T08:16:44.810Z,22.55
2023-01-20T08:18:48.021Z,18.75
2023-01-20T08:20:55.389Z,22.80
2023-01-20T08:22:57.852Z,21.67
2023-01-20T08:25:00.289Z,19.52
2023-01-20T08:27:02.866Z,21.15
2023-01-20T08:29:07.881Z,23.67
2023-01-20T08:31:12.849Z,31.27
2023-01-20T08:33:15.376Z,40.00
2023-01-20T08:35:18.058Z,22.02
2023-01-20T08:37:23.851Z,25.70
2023-01-20T08:39:26.423Z,18.08
2023-01-20T08:41:31.428Z,20.33
2023-01-20T08:43:34.283Z,27.70
2023-01-20T08:45:36.860Z,20.00
2023-01-20T08:47:45.989Z,26.98
2023-01-20T08:49:57.436Z,18.42
2023-01-20T08:52:00.252Z,22.02
2023-01-20T08:54:05.788Z,23.70
2023-01-20T08:56:08.875Z,18.02
2023-01-20T08:58:13.087Z,22.85
2023-01-20T09:00:17.445Z,26.13
2023-01-20T09:02:20.091Z,25.25
2023-01-20T09:04:22.667Z,22.38
2023-01-20T09:06:25.959Z,20.77
2023-01-20T09:08:28.467Z,23.57
2023-01-20T09:10:35.644Z,27.00
2023-01-20T09:12:38.051Z,19.73
2023-01-20T09:14:41.052Z,22.60
2023-01-20T09:16:43.358Z,28.05
2023-01-20T09:18:46.540Z,27.55
2023-01-20T09:20:49.295Z,21.65
2023-01-20T09:22:51.987Z,28.52
2023-01-20T09:24:56.867Z,23.83
2023-01-20T09:27:01.885Z,21.25
2023-01-20T09:29:09.931Z,20.05
2023-01-20T09:31:20.348Z,27.40
2023-01-20T09:33:22.897Z,26.52
2023-01-20T09:35:25.825Z,21.77
2023-01-20T09:37:46.592Z,27.45
2023-01-20T09:40:08.293Z,25.60
2023-01-20T09:42:44.151Z,23.45
2023-01-20T09:44:50.309Z,22.48
2023-01-20T09:47:19.793Z,19.88
2023-01-20T09:49:54.013Z,24.88
2023-01-20T09:52:24.820Z,26.55
2023-01-20T09:54:34.328Z,21.15
2023-01-20T09:56:41.434Z,22.63
2023-01-20T09:58:53.809Z,26.35
2023-01-20T10:01:06.072Z,26.00
2023-01-20T10:03:16.143Z,26.27
2023-01-20T10:05:21.169Z,23.90
2023-01-20T10:07:30.517Z,26.13
2023-01-20T10:09:38.468Z,26.95
2023-01-20T10:11:43.479Z,25.25
2023-01-20T10:13:52.290Z,29.90
2023-01-20T10:15:56.414Z,28.80
2023-01-20T10:18:04.949Z,33.03
2023-01-20T10:20:12.838Z,24.00
2023-01-20T10:22:20.975Z,28.13
2023-01-20T10:24:31.340Z,24.15
2023-01-20T10:26:40.478Z,25.88
2023-01-20T10:28:51.631Z,24.90
2023-01-20T10:30:55.940Z,23.90
2023-01-20T10:33:03.888Z,24.73
2023-01-20T10:35:15.930Z,24.13
2023-01-20T10:37:22.800Z,25.52
2023-01-20T10:39:31.569Z,24.60
2023-01-20T10:41:42.182Z,24.52
2023-01-20T10:43:44.757Z,41.85
2023-01-20T10:46:05.952Z,27.60
2023-01-20T10:48:24.141Z,29.25
2023-01-20T10:50:36.762Z,18.75
2023-01-20T10:52:55.866Z,29.27
2023-01-20T10:55:12.457Z,31.80
2023-01-20T10:57:16.192Z,20.25
2023-01-20T11:01:28.475Z,34.58
2023-01-20T11:03:36.356Z,24.38
2023-01-20T11:05:48.037Z,31.23
2023-01-20T11:07:52.420Z,28.45
2023-01-20T11:11:59.688Z,26.98
2023-01-20T11:14:03.828Z,30.23
2023-01-20T11:16:16.978Z,25.60
2023-01-20T11:18:27.878Z,25.77
2023-01-20T11:20:30.590Z,20.27
2023-01-20T11:22:36.878Z,28.02
2023-01-20T11:24:43.611Z,32.50
2023-01-20T11:26:46.083Z,22.63
2023-01-20T11:28:53.439Z,22.65
2023-01-20T11:30:57.150Z,24.25
2023-01-20T11:33:18.086Z,19.73
2023-01-20T11:35:25.493Z,27.13
2023-01-20T11:37:35.963Z,26.85
2023-01-20T11:39:44.355Z,21.40
2023-01-20T11:41:46.667Z,26.27
2023-01-20T11:43:49.534Z,23.75
2023-01-20T11:46:09.321Z,24.13
2023-01-20T11:48:19.304Z,18.65
2023-01-20T11:50:31.682Z,20.92
2023-01-20T11:52:35.953Z,23.48
2023-01-20T11:56:43.855Z,21.58
2023-01-20T11:58:51.556Z,26.10
2023-01-20T12:01:00.968Z,23.25
2023-01-20T12:03:35.768Z,27.55
2023-01-20T12:05:54.817Z,21.88
2023-01-20T12:07:57.740Z,20.77
2023-01-20T12:10:06.100Z,29.40
2023-01-20T12:12:18.081Z,25.92
2023-01-20T12:14:25.365Z,22.10
2023-01-20T12:16:30.553Z,25.60
2023-01-20T12:18:37.141Z,25.20
2023-01-20T12:20:54.874Z,22.73
2023-01-20T12:23:21.397Z,25.42
2023-01-20T12:25:27.696Z,25.50
2023-01-20T12:27:31.015Z,23.77
2023-01-20T12:29:44.887Z,31.00
2023-01-20T12:31:49.378Z,24.83
2023-01-20T12:33:56.652Z,20.83
2023-01-20T12:36:28.324Z,24.17
2023-01-20T12:38:40.875Z,28.85
2023-01-20T12:40:49.330Z,24.77
2023-01-20T12:43:11.520Z,23.13
2023-01-20T12:45:25.785Z,28.00
2023-01-20T12:47:47.457Z,24.15
2023-01-20T12:50:11.363Z,27.27
2023-01-20T12:52:44.907Z,20.58
2023-01-20T12:55:15.739Z,21.27
2023-01-20T12:57:30.770Z,20.65
2023-01-20T12:59:43.670Z,23.63
2023-01-20T13:01:56.413Z,20.58
2023-01-20T13:04:19.646Z,26.65
2023-01-20T13:06:54.274Z,21.20
2023-01-20T13:09:12.327Z,25.67
2023-01-20T13:11:21.961Z,27.13
2023-01-20T13:13:45.137Z,23.83
2023-01-20T13:16:03.737Z,20.40
2023-01-20T13:18:19.157Z,21.15
2023-01-20T13:20:23.717Z,21.75
2023-01-20T13:22:26.802Z,29.70
2023-01-20T13:24:32.463Z,24.52
2023-01-20T13:26:36.846Z,31.30
2023-01-20T13:30:54.809Z,24.83
2023-01-20T13:33:04.901Z,22.70
2023-01-20T13:35:44.918Z,18.60
2023-01-20T13:37:49.465Z,29.50
2023-01-20T13:39:55.105Z,23.23
2023-01-20T13:41:57.626Z,16.88
2023-01-20T13:44:01.063Z,28.27
2023-01-20T13:46:33.445Z,25.73
2023-01-20T13:48:37.542Z,30.00
2023-01-20T13:50:41.344Z,22.48
2023-01-20T13:53:15.186Z,26.38
2023-01-20T13:55:47.298Z,23.27
2023-01-20T13:57:55.053Z,20.27
2023-01-20T13:59:57.405Z,23.92
2023-01-20T14:02:15.967Z,30.92
2023-01-20T14:04:19.753Z,18.70
2023-01-20T14:06:24.086Z,23.20
2023-01-20T14:10:29.926Z,22.63
2023-01-20T14:12:40.615Z,25.52
2023-01-20T14:14:49.450Z,19.67
2023-01-20T14:16:52.276Z,23.33
2023-01-20T14:18:56.872Z,23.15
2023-01-20T14:21:05.669Z,20.60
2023-01-20T14:23:36.872Z,27.98
2023-01-20T14:25:39.303Z,26.77
2023-01-20T14:27:44.804Z,24.40
2023-01-20T14:29:51.132Z,21.70
2023-01-20T14:31:53.575Z,23.27
2023-01-20T14:34:00.423Z,23.77
2023-01-20T14:36:06.653Z,22.65
2023-01-20T14:38:17.004Z,24.65
2023-01-20T14:40:23.937Z,22.20
2023-01-20T14:42:28.083Z,20.60
2023-01-20T14:44:34.992Z,21.45
2023-01-20T14:46:40.228Z,23.63
2023-01-20T14:48:44.532Z,24.90
2023-01-20T14:50:50.992Z,28.65
2023-01-20T14:52:53.352Z,23.38
2023-01-20T14:54:59.169Z,24.05
2023-01-20T14:57:12.620Z,27.92
2023-01-20T14:59:19.513Z,20.98
2023-01-20T15:01:23.898Z,18.77
2023-01-20T15:03:30.137Z,23.75
2023-01-20T15:05:34.479Z,20.08
2023-01-20T15:07:37.945Z,21.75
2023-01-20T15:09:42.545Z,23.87
2023-01-20T15:11:46.448Z,22.17
2023-01-20T15:14:10.968Z,16.52
2023-01-20T15:16:18.710Z,19.73
2023-01-20T15:18:23.338Z,16.13
2023-01-20T15:20:32.899Z,24.77
2023-01-20T15:22:43.200Z,19.48
2023-01-20T15:24:47.406Z,24.85
2023-01-20T15:26:51.948Z,26.08
2023-01-20T15:28:55.248Z,23.20
2023-01-20T15:30:58.838Z,21.42
2023-01-20T15:33:01.323Z,25.67
2023-01-20T15:35:03.841Z,18.92
2023-01-20T15:37:18.526Z,26.20
2023-01-20T15:41:24.429Z,24.55
2023-01-20T15:43:26.868Z,27.85
2023-01-20T15:45:29.448Z,18.92
2023-01-20T15:47:33.230Z,22.95
2023-01-20T15:49:36.345Z,26.60
2023-01-20T15:51:39.224Z,18.52
2023-01-20T15:53:45.293Z,23.00
2023-01-20T15:55:50.052Z,20.63
2023-01-20T15:57:53.261Z,17.65
2023-01-20T15:59:55.569Z,23.40
2023-01-20T16:01:59.464Z,27.02
2023-01-20T16:04:01.884Z,28.88
2023-01-20T16:06:11.035Z,23.60
2023-01-20T16:08:17.406Z,25.95
2023-01-20T16:10:22.738Z,31.52
2023-01-20T16:12:25.178Z,21.98
2023-01-20T16:14:27.510Z,22.35
2023-01-20T16:16:30.276Z,29.40
2023-01-20T16:18:32.602Z,21.33
2023-01-20T16:20:35.722Z,23.77
2023-01-20T16:22:38.292Z,23.48
2023-01-20T16:24:41.377Z,19.75
2023-01-20T16:26:47.003Z,22.23
2023-01-20T16:28:49.777Z,24.77
2023-01-20T16:30:54.023Z,22.85
2023-01-20T16:35:00.122Z,27.33
2023-01-20T16:37:02.543Z,20.98
2023-01-20T16:39:05.007Z,25.23
2023-01-20T16:41:14.081Z,27.33
2023-01-20T16:43:20.298Z,24.00
2023-01-20T16:45:26.763Z,31.17
2023-01-20T16:47:29.138Z,25.58
2023-01-20T16:49:31.633Z,23.17
2023-01-20T16:51:34.805Z,25.05
2023-01-20T16:53:37.269Z,21.83
2023-01-20T16:55:43.429Z,30.42
2023-01-20T16:57:48.583Z,22.33
2023-01-20T16:59:53.475Z,22.35
2023-01-20T17:01:56.102Z,27.63
2023-01-20T17:04:00.133Z,23.27
2023-01-20T17:06:09.350Z,25.95
2023-01-20T17:08:11.789Z,27.40
2023-01-20T17:10:14.846Z,21.17
2023-01-20T17:12:17.419Z,25.83
2023-01-20T17:14:19.760Z,23.40
2023-01-20T17:16:26.361Z,26.02
2023-01-20T17:18:28.808Z,28.73
2023-01-20T17:20:32.397Z,24.85
2023-01-20T17:22:34.858Z,23.10
2023-01-20T17:24:39.293Z,25.95
2023-01-20T17:28:43.863Z,31.92
2023-01-20T17:30:46.256Z,29.02
2023-01-20T17:32:51.249Z,25.55
2023-01-20T17:34:53.609Z,29.80
2023-01-20T17:36:55.909Z,40.63
2023-01-20T17:38:58.400Z,23.45
2023-01-20T17:41:01.629Z,24.92
2023-01-20T17:43:04.813Z,23.52
2023-01-20T17:45:08.265Z,21.35
2023-01-20T17:47:11.080Z,29.03
2023-01-20T17:49:16.460Z,28.77
2023-01-20T17:51:20.981Z,23.77
2023-01-20T17:53:25.111Z,20.90
2023-01-20T17:55:28.240Z,25.15
2023-01-20T17:57:32.566Z,22.80
2023-01-20T18:01:37.274Z,29.38
2023-01-20T18:03:42.711Z,21.25
2023-01-20T18:05:48.046Z,20.95
2023-01-20T18:07:50.639Z,24.50
2023-01-20T18:09:52.976Z,20.25
2023-01-20T18:11:55.368Z,32.15
2023-01-20T18:13:59.155Z,24.52
2023-01-20T18:16:05.545Z,22.92
2023-01-20T18:18:07.936Z,22.73
2023-01-20T18:20:12.118Z,24.45
2023-01-20T18:22:17.714Z,22.27
2023-01-20T18:24:20.209Z,25.42
2023-01-20T18:26:24.754Z,20.30
2023-01-20T18:28:27.336Z,19.60
2023-01-20T18:30:30.135Z,25.83
2023-01-20T18:32:32.781Z,26.35
2023-01-20T18:34:35.289Z,20.00
2023-01-20T18:36:39.593Z,23.48
2023-01-20T18:38:49.564Z,21.13
2023-01-20T18:40:52.321Z,24.17
2023-01-20T18:42:54.708Z,21.58
2023-01-20T18:44:57.061Z,17.95
2023-01-20T18:46:59.376Z,18.20
2023-01-20T18:49:02.256Z,22.08
2023-01-20T18:51:04.858Z,25.42
2023-01-20T18:53:07.281Z,24.45
2023-01-20T18:55:13.001Z,17.00
2023-01-20T18:57:15.314Z,16.63
2023-01-20T18:59:17.804Z,21.35
2023-01-20T19:01:22.270Z,19.35
2023-01-20T19:03:24.939Z,19.63
2023-01-20T19:05:27.310Z,17.80
2023-01-20T19:07:29.704Z,17.52
2023-01-20T19:09:32.248Z,18.67
2023-01-20T19:11:42.390Z,20.80
2023-01-20T19:13:45.562Z,17.13
2023-01-20T19:15:47.995Z,17.65
2023-01-20T19:17:51.593Z,17.63
2023-01-20T19:19:53.867Z,21.83
2023-01-20T19:21:56.239Z,18.50
2023-01-20T19:24:01.326Z,19.05
2023-01-20T19:26:05.584Z,17.35
2023-01-20T19:28:11.052Z,18.85
2023-01-20T19:30:15.046Z,21.88
2023-01-20T19:32:17.786Z,20.05
2023-01-20T19:34:20.211Z,16.10
2023-01-20T19:36:23.667Z,17.20
2023-01-20T19:38:26.302Z,17.42
2023-01-20T19:40:28.632Z,19.63
2023-01-20T19:42:30.969Z,21.48
2023-01-20T19:44:36.153Z,16.25
2023-01-20T19:46:39.015Z,14.85
2023-01-20T19:48:41.781Z,18.08
2023-01-20T19:50:44.284Z,20.23
2023-01-20T19:52:46.761Z,25.88
2023-01-20T19:54:51.607Z,19.10
2023-01-20T19:56:55.154Z,20.05
2023-01-20T19:58:57.911Z,13.15
2023-01-20T20:01:10.264Z,17.05
2023-01-20T20:03:14.961Z,21.17
2023-01-20T20:05:19.287Z,20.10
2023-01-20T20:09:26.222Z,15.27
2023-01-20T20:11:29.751Z,22.02
2023-01-20T20:13:32.299Z,17.35
2023-01-20T20:15:34.645Z,16.25
2023-01-20T20:17:39.624Z,18.38
2023-01-20T20:19:42.028Z,15.27
2023-01-20T20:21:44.915Z,19.48
2023-01-20T20:23:49.909Z,21.83
2023-01-20T20:25:56.322Z,24.92
2023-01-20T20:27:58.687Z,19.90
2023-01-20T20:30:01.476Z,16.27
2023-01-20T20:32:03.907Z,19.95
2023-01-20T20:34:12.392Z,23.98
2023-01-20T20:36:15.630Z,20.75
2023-01-20T20:38:17.948Z,19.02
2023-01-20T20:40:20.409Z,20.67
2023-01-20T20:42:22.775Z,17.17
2023-01-20T20:44:25.156Z,18.05
2023-01-20T20:46:28.386Z,17.52
2023-01-20T20:48:30.860Z,17.63
2023-01-20T20:50:35.871Z,19.52
2023-01-20T20:52:38.323Z,23.17
2023-01-20T20:54:40.620Z,25.95
2023-01-20T20:56:43.409Z,22.15
2023-01-20T20:59:00.466Z,33.15
2023-01-20T21:01:04.239Z,30.98
2023-01-20T21:03:11.140Z,23.77
2023-01-20T21:05:13.760Z,26.05
2023-01-20T21:07:19.590Z,19.80
2023-01-20T21:09:21.898Z,22.65
2023-01-20T21:11:24.992Z,24.85
2023-01-20T21:13:27.657Z,22.85
2023-01-20T21:15:30.590Z,21.70
2023-01-20T21:17:32.924Z,26.00
2023-01-20T21:19:35.345Z,23.48
2023-01-20T21:21:37.794Z,20.45
2023-01-20T21:23:43.120Z,24.60
2023-01-20T21:25:45.433Z,17.45
2023-01-20T21:27:47.784Z,23.70
2023-01-20T21:29:51.215Z,26.55
2023-01-20T21:31:53.888Z,21.07
2023-01-20T21:33:58.480Z,24.88
2023-01-20T21:36:01.674Z,20.98
2023-01-20T21:38:04.040Z,19.90
2023-01-20T21:40:10.925Z,25.65
2023-01-20T21:42:13.245Z,22.98
2023-01-20T21:44:36.377Z,21.60
2023-01-20T21:46:40.485Z,23.52
2023-01-20T21:49:01.801Z,14.00
2023-01-20T21:51:23.005Z,24.35
2023-01-20T21:53:25.333Z,29.25
2023-01-20T21:55:30.283Z,26.65
2023-01-20T21:57:33.181Z,22.95
2023-01-20T21:59:36.623Z,20.10
2023-01-20T22:01:39.700Z,23.38
2023-01-20T22:03:41.994Z,19.52
2023-01-20T22:05:44.373Z,20.60
2023-01-20T22:07:47.989Z,20.92
2023-01-20T22:09:50.384Z,21.90
2023-01-20T22:11:55.433Z,19.60
2023-01-20T22:13:58.270Z,19.67
2023-01-20T22:16:02.397Z,20.77
2023-01-20T22:18:04.829Z,17.55
2023-01-20T22:20:08.604Z,20.35
2023-01-20T22:22:11.707Z,22.70
2023-01-20T22:24:14.840Z,20.38
2023-01-20T22:26:17.360Z,24.20
2023-01-20T22:28:24.563Z,20.23
2023-01-20T22:30:27.086Z,26.35
2023-01-20T22:32:29.416Z,24.67
2023-01-20T22:34:31.982Z,21.55
2023-01-20T22:36:34.826Z,19.77
2023-01-20T22:38:37.315Z,18.50
2023-01-20T22:40:39.848Z,24.08
2023-01-20T22:42:42.230Z,21.60
2023-01-20T22:44:47.082Z,20.20
2023-01-20T22:46:49.601Z,18.88
2023-01-20T22:49:09.731Z,22.63
2023-01-20T22:51:14.075Z,21.77
2023-01-20T22:55:18.636Z,20.08
2023-01-20T22:57:20.986Z,21.17
2023-01-20T22:59:23.627Z,22.02
2023-01-20T23:01:32.465Z,14.85
2023-01-20T23:03:34.876Z,21.42
2023-01-20T23:05:38.492Z,23.50
2023-01-20T23:07:42.072Z,21.23
2023-01-20T23:09:46.413Z,18.73
2023-01-20T23:11:49.404Z,15.98
2023-01-20T23:13:52.398Z,22.15
2023-01-20T23:15:55.631Z,20.55
2023-01-20T23:18:00.626Z,20.65
2023-01-20T23:20:03.092Z,20.23
2023-01-20T23:22:05.533Z,17.65
2023-01-20T23:24:09.109Z,22.42
2023-01-20T23:26:15.277Z,24.27
2023-01-20T23:28:17.692Z,27.13
2023-01-20T23:30:20.221Z,21.42
2023-01-20T23:32:22.752Z,45.20
2023-01-20T23:34:27.724Z,22.83
2023-01-20T23:36:30.292Z,20.92
2023-01-20T23:38:32.807Z,26.95
2023-01-20T23:40:35.694Z,24.80
2023-01-20T23:42:38.203Z,20.80
2023-01-20T23:44:40.521Z,23.15
2023-01-20T23:46:45.940Z,24.73
2023-01-20T23:48:48.312Z,20.13
2023-01-20T23:50:53.550Z,28.80
2023-01-20T23:52:56.045Z,20.52
2023-01-20T23:54:58.489Z,25.08
2023-01-20T23:57:00.838Z,29.40
2023-01-20T23:59:03.494Z,20.33
